Time;durP1;ratioP1;P1;durP2;ratioP2;P2;SDS_P1;SDS_P2;PMS_P1;PMS_P2;Temp;Humidity;BMP_temperature;BMP_pressure;BME280_temperature;BME280_humidity;BME280_pressure;Samples;Min_cycle;Max_cycle;Signal;HPM_P1;HPM_P2
2021/08/17 00:00:42;;;;;;;4.13;2.28;;;;;;;15.52;63.69;101846.09;5078639;28;20064;-74
2021/08/17 00:03:10;;;;;;;4.28;1.83;;;;;;;16.51;60.38;101838.81;5078918;28;20097;-74
2021/08/17 00:05:39;;;;;;;7.43;2.03;;;;;;;16.26;59.71;101833.88;5078111;28;20031;-74
2021/08/17 00:08:04;;;;;;;;;;;;;;;16.26;61.03;101839.16;5062457;28;20069;-74
2021/08/17 00:10:30;;;;;;;7.20;2.88;;;;;;;15.91;61.30;101837.28;5078365;28;19940;-74
2021/08/17 00:12:55;;;;;;;2.45;1.60;;;;;;;16.65;64.37;101835.50;5078847;28;20042;-74
2021/08/17 00:15:20;;;;;;;4.25;2.15;;;;;;;16.45;61.45;101831.19;5078514;28;20024;-74
2021/08/17 00:17:46;;;;;;;7.07;2.88;;;;;;;15.99;60.98;101836.94;5079521;28;20091;-74
2021/08/17 00:20:12;;;;;;;7.95;2.38;;;;;;;16.44;63.88;101830.31;5079586;28;20059;-74
2021/08/17 00:22:38;;;;;;;10.20;2.58;;;;;;;16.07;59.58;101836.56;5078635;28;20123;-74
2021/08/17 00:25:04;;;;;;;7.13;1.90;;;;;;;16.05;63.68;101826.06;5061898;28;20040;-74
2021/08/17 00:27:30;;;;;;;8.43;2.03;;;;;;;16.83;59.44;101825.81;5078170;28;20293;-74
2021/08/17 00:29:55;;;;;;;4.78;2.20;;;;;;;16.22;62.52;101824.38;5094522;28;20058;-74
2021/08/17 00:32:20;;;;;;;3.85;2.00;;;;;;;16.36;60.05;101821.94;5081527;28;20032;-74
2021/08/17 00:34:46;;;;;;;3.65;1.92;;;;;;;15.61;61.90;101829.00;5099802;28;20024;-74
2021/08/17 00:37:12;;;;;;;8.20;2.10;;;;;;;14.96;64.38;101820.44;5099705;28;20028;-74
2021/08/17 00:39:38;;;;;;;4.65;2.08;;;;;;;15.36;63.65;101823.97;5081881;28;20028;-73
2021/08/17 00:42:05;;;;;;;8.35;2.40;;;;;;;14.99;64.81;101820.34;5065347;28;20061;-74
2021/08/17 00:44:30;;;;;;;6.20;2.58;;;;;;;14.93;65.57;101816.16;5081219;28;20020;-74
2021/08/17 00:46:56;;;;;;;3.42;2.17;;;;;;;15.04;65.43;101820.13;5099886;28;20042;-74
2021/08/17 00:49:22;;;;;;;5.55;2.38;;;;;;;14.88;67.04;101815.53;5081480;28;20021;-74
2021/08/17 00:51:52;;;;;;;11.07;2.53;;;;;;;14.81;67.42;101806.16;5065017;28;20519;-74
2021/08/17 00:54:17;;;;;;;12.45;2.30;;;;;;;14.85;68.21;101806.88;5081531;28;20039;-74
2021/08/17 00:56:43;;;;;;;6.18;2.45;;;;;;;15.03;67.90;101808.72;5099556;28;20028;-74
2021/08/17 00:59:10;;;;;;;5.53;2.63;;;;;;;15.06;67.90;101808.59;5067403;28;20036;-74
2021/08/17 01:05:08;;;;;;;9.65;2.58;;;;;;;15.45;67.54;101809.50;5081904;28;20025;-74
2021/08/17 01:07:34;;;;;;;4.97;2.67;;;;;;;15.31;67.24;101805.69;5049468;28;20408;-74
2021/08/17 01:09:59;;;;;;;4.43;2.45;;;;;;;15.06;68.21;101808.59;5048546;28;20029;-74
2021/08/17 01:12:25;;;;;;;5.65;2.35;;;;;;;15.78;67.69;101812.38;5082372;28;20043;-74
2021/08/17 01:14:50;;;;;;;6.65;2.17;;;;;;;15.98;67.09;101808.78;5082843;28;20212;-74
2021/08/17 01:17:19;;;;;;;8.18;2.05;;;;;;;16.76;63.75;101808.50;5064438;28;20073;-74
2021/08/17 01:19:45;;;;;;;6.18;2.05;;;;;;;16.43;65.09;101815.41;5048684;28;20035;-74
2021/08/17 01:22:10;;;;;;;3.50;2.03;;;;;;;16.44;63.35;101819.75;5065031;28;20039;-74
2021/08/17 01:24:36;;;;;;;4.25;1.77;;;;;;;16.36;65.01;101810.50;5080890;28;20012;-74
2021/08/17 01:27:01;;;;;;;7.15;2.38;;;;;;;16.50;63.00;101815.97;5081551;28;20031;-74
2021/08/17 01:29:27;;;;;;;7.68;2.42;;;;;;;16.02;64.83;101818.28;5081939;28;20060;-74
2021/08/17 01:31:54;;;;;;;8.25;2.45;;;;;;;15.83;65.75;101820.09;5081573;28;20056;-74
2021/08/17 01:34:20;;;;;;;8.00;2.90;;;;;;;16.05;65.77;101822.56;5064188;28;20084;-74
2021/08/17 01:36:45;;;;;;;8.57;2.83;;;;;;;15.79;65.85;101829.97;5082393;28;20035;-74
2021/08/17 01:39:11;;;;;;;4.35;2.38;;;;;;;15.50;67.22;101826.00;5082501;28;20040;-75
2021/08/17 01:41:36;;;;;;;8.80;2.50;;;;;;;15.67;67.31;101828.69;5079025;28;20323;-74
2021/08/17 01:44:14;;;;;;;2.78;2.05;;;;;;;16.04;66.56;101826.97;5084508;28;20036;-74
2021/08/17 01:46:40;;;;;;;5.13;2.50;;;;;;;15.62;66.64;101833.31;5064400;28;20044;-74
2021/08/17 01:49:05;;;;;;;6.30;2.45;;;;;;;16.43;63.81;101830.44;5082340;28;20385;-74
2021/08/17 01:51:31;;;;;;;5.93;2.38;;;;;;;16.37;64.68;101826.31;5063930;28;20043;-74
2021/08/17 01:53:56;;;;;;;4.53;2.15;;;;;;;16.89;62.81;101825.47;5064356;28;20068;-74
2021/08/17 01:56:22;;;;;;;6.28;2.35;;;;;;;16.23;65.70;101826.97;5063726;28;20033;-74
2021/08/17 01:58:47;;;;;;;4.68;2.22;;;;;;;16.62;64.24;101827.69;5082186;28;20046;-74
2021/08/17 02:01:13;;;;;;;5.88;3.00;;;;;;;16.12;65.09;101826.63;5081723;28;20028;-74
2021/08/17 02:03:38;;;;;;;6.55;2.58;;;;;;;15.93;65.25;101818.72;5063991;28;20060;-74
2021/08/17 02:06:04;;;;;;;5.88;2.67;;;;;;;16.13;64.26;101817.75;5081787;28;20235;-74
2021/08/17 02:08:30;;;;;;;6.15;2.88;;;;;;;15.61;66.75;101821.06;5047035;28;20039;-74
2021/08/17 02:10:55;;;;;;;4.63;2.80;;;;;;;15.87;67.00;101811.94;5046375;28;20029;-74
2021/08/17 02:13:20;;;;;;;5.70;2.40;;;;;;;16.16;65.99;101817.63;5046845;28;20024;-74
2021/08/17 02:15:46;;;;;;;3.67;1.77;;;;;;;16.76;65.07;101821.72;5047176;28;20024;-74
2021/08/17 02:18:12;;;;;;;8.95;3.33;;;;;;;15.98;64.97;101811.44;5081275;28;20037;-74
2021/08/17 02:20:37;;;;;;;3.92;2.90;;;;;;;15.80;66.04;101825.53;5047168;28;20335;-74
2021/08/17 02:23:03;;;;;;;8.50;3.00;;;;;;;15.99;65.49;101822.84;5081531;28;20029;-74
2021/08/17 02:25:28;;;;;;;6.60;2.53;;;;;;;15.38;68.63;101824.75;5062995;28;20039;-74
2021/08/17 02:27:54;;;;;;;3.78;2.80;;;;;;;15.76;66.64;101816.03;5081645;28;20347;-74
2021/08/17 02:30:19;;;;;;;9.00;3.13;;;;;;;15.72;66.98;101812.66;5063010;28;20396;-74
2021/08/17 02:32:45;;;;;;;5.53;2.85;;;;;;;15.85;66.57;101807.69;5081063;28;20040;-74
2021/08/17 02:35:10;;;;;;;9.55;3.47;;;;;;;15.61;66.96;101812.25;5063285;28;20016;-74
2021/08/17 02:37:35;;;;;;;10.20;3.38;;;;;;;15.83;66.93;101815.66;5062796;28;20059;-74
2021/08/17 02:40:01;;;;;;;5.20;3.40;;;;;;;15.05;69.43;101813.94;5063434;28;20033;-74
2021/08/17 02:42:27;;;;;;;6.00;3.58;;;;;;;14.91;70.66;101823.28;5063019;28;20215;-74
2021/08/17 02:44:52;;;;;;;8.10;4.03;;;;;;;15.01;70.24;101812.31;5063250;28;20246;-74
2021/08/17 02:47:18;;;;;;;8.27;4.30;;;;;;;14.56;72.05;101814.22;5062693;28;20296;-74
2021/08/17 02:49:43;;;;;;;19.13;4.95;;;;;;;14.47;73.84;101811.97;5080940;28;20152;-74
2021/08/17 02:52:09;;;;;;;12.57;4.20;;;;;;;14.28;73.98;101819.75;5063149;28;20319;-73
2021/08/17 02:54:35;;;;;;;7.80;4.63;;;;;;;14.32;74.54;101819.56;5062167;28;20032;-73
2021/08/17 02:57:01;;;;;;;12.00;4.63;;;;;;;14.25;75.04;101815.47;5081523;28;20032;-71
2021/08/17 02:59:26;;;;;;;12.43;4.85;;;;;;;14.29;74.85;101809.16;5062465;28;20101;-71
2021/08/17 03:01:52;;;;;;;14.68;5.63;;;;;;;14.25;75.26;101799.66;5046707;28;20196;-71
2021/08/17 03:04:17;;;;;;;13.45;5.28;;;;;;;14.43;74.81;101803.31;5062310;28;20020;-71
2021/08/17 03:06:42;;;;;;;14.02;5.57;;;;;;;14.30;76.19;101812.66;5080619;28;20035;-71
2021/08/17 03:09:08;;;;;;;17.42;5.63;;;;;;;14.18;75.67;101800.84;5080675;28;20028;-71
2021/08/17 03:11:33;;;;;;;14.35;5.50;;;;;;;13.98;77.52;101806.91;5062084;28;20103;-71
2021/08/17 03:13:59;;;;;;;10.18;5.30;;;;;;;13.88;77.53;101809.06;5046113;28;20036;-70
2021/08/17 03:16:25;;;;;;;11.00;5.45;;;;;;;13.73;78.28;101813.09;5079987;28;20028;-71
2021/08/17 03:18:51;;;;;;;14.05;6.07;;;;;;;13.63;78.69;101798.59;5080590;28;20154;-71
2021/08/17 03:21:16;;;;;;;12.88;5.97;;;;;;;13.49;79.58;101796.47;5061759;28;20098;-71
2021/08/17 03:23:42;;;;;;;14.45;6.53;;;;;;;13.68;79.01;101801.03;5080543;28;20323;-71
2021/08/17 03:26:07;;;;;;;13.05;6.05;;;;;;;13.32;80.38;101798.91;5062637;28;20044;-71
2021/08/17 03:28:33;;;;;;;13.95;6.57;;;;;;;13.27;80.35;101793.75;5079743;28;20231;-71
2021/08/17 03:30:58;;;;;;;24.00;6.45;;;;;;;13.23;80.58;101787.75;5080313;28;20036;-71
2021/08/17 03:33:23;;;;;;;14.82;6.88;;;;;;;13.04;81.22;101787.59;5045037;28;20123;-71
2021/08/17 03:35:49;;;;;;;16.20;6.65;;;;;;;13.15;81.20;101786.31;5080431;28;20025;-71
2021/08/17 03:38:14;;;;;;;11.25;6.65;;;;;;;12.99;81.82;101779.00;5061786;28;20040;-71
2021/08/17 03:40:40;;;;;;;13.65;6.65;;;;;;;12.97;82.31;101775.56;5062349;28;20029;-71
2021/08/17 03:43:06;;;;;;;18.08;7.00;;;;;;;12.87;82.53;101775.00;5062141;28;20175;-71
2021/08/17 03:45:31;;;;;;;17.13;6.78;;;;;;;12.77;82.72;101780.66;5061443;28;20055;-71
2021/08/17 03:47:57;;;;;;;14.07;8.07;;;;;;;12.93;82.75;101783.59;5080031;28;20028;-71
2021/08/17 03:50:22;;;;;;;15.23;7.45;;;;;;;12.68;83.17;101771.34;5079605;28;20059;-71
2021/08/17 03:52:48;;;;;;;13.27;6.95;;;;;;;12.91;82.58;101770.50;5062058;28;20084;-71
2021/08/17 03:55:13;;;;;;;18.00;8.15;;;;;;;12.97;81.86;101772.94;5061606;28;20027;-71
2021/08/17 03:57:38;;;;;;;18.65;7.72;;;;;;;12.72;83.02;101780.81;5079790;28;20028;-71
2021/08/17 04:00:06;;;;;;;22.08;9.23;;;;;;;12.72;83.51;101787.84;5045456;28;20035;-71
2021/08/17 04:02:31;;;;;;;17.83;8.95;;;;;;;12.80;83.63;101786.66;5045236;28;20066;-70
2021/08/17 04:04:57;;;;;;;27.60;9.70;;;;;;;13.01;83.61;101784.19;5062014;28;20100;-70
2021/08/17 04:07:22;;;;;;;22.05;9.90;;;;;;;13.04;82.87;101790.22;5079365;28;20028;-70
2021/08/17 04:09:47;;;;;;;18.65;8.90;;;;;;;12.95;83.30;101793.16;5061917;28;20059;-70
2021/08/17 04:12:13;;;;;;;21.45;10.38;;;;;;;12.86;83.78;101794.34;5061812;28;20032;-70
2021/08/17 04:14:38;;;;;;;22.75;10.32;;;;;;;12.70;84.48;101802.78;5045051;28;20096;-70
2021/08/17 04:17:04;;;;;;;23.67;9.55;;;;;;;12.74;84.97;101802.66;5079894;28;20028;-70
2021/08/17 04:19:29;;;;;;;24.67;10.23;;;;;;;12.85;84.13;101804.91;5079018;28;20043;-70
2021/08/17 04:21:54;;;;;;;25.85;10.70;;;;;;;12.85;84.19;101807.53;5079966;28;20045;-70
2021/08/17 04:24:20;;;;;;;24.02;11.38;;;;;;;12.93;84.38;101808.09;5061229;28;20328;-70
2021/08/17 04:26:45;;;;;;;28.00;12.32;;;;;;;12.91;84.34;101804.69;5045237;28;20059;-70
2021/08/17 04:29:11;;;;;;;26.75;11.65;;;;;;;13.04;84.04;101802.47;5079568;28;20060;-70
2021/08/17 04:31:36;;;;;;;27.45;11.20;;;;;;;12.99;84.33;101801.81;5061440;28;20074;-70
2021/08/17 04:34:02;;;;;;;24.38;11.05;;;;;;;13.27;82.94;101798.19;5064091;28;20235;-70
2021/08/17 04:36:27;;;;;;;22.58;10.20;;;;;;;13.24;83.35;101794.75;5065071;28;20043;-70
2021/08/17 04:38:53;;;;;;;21.58;10.63;;;;;;;13.16;83.84;101801.19;5048940;28;20343;-70
2021/08/17 04:41:18;;;;;;;32.35;11.38;;;;;;;13.72;81.95;101794.75;5082862;28;20276;-71
2021/08/17 04:43:44;;;;;;;27.13;11.65;;;;;;;13.49;82.98;101793.00;5065597;28;20051;-71
2021/08/17 04:46:09;;;;;;;26.15;11.00;;;;;;;13.53;82.91;101794.59;5083158;28;20036;-71
2021/08/17 04:48:34;;;;;;;35.10;12.52;;;;;;;13.65;82.87;101796.75;5082975;28;20304;-71
2021/08/17 04:51:00;;;;;;;25.08;11.32;;;;;;;13.75;82.54;101795.50;5065596;28;20104;-70
2021/08/17 04:53:26;;;;;;;29.15;11.30;;;;;;;13.72;82.84;101794.75;5064932;28;20363;-70
2021/08/17 04:55:52;;;;;;;28.50;12.25;;;;;;;13.59;83.52;101784.69;5048780;28;20036;-70
2021/08/17 04:58:17;;;;;;;30.75;12.45;;;;;;;13.80;82.15;101792.69;5082226;28;20135;-70
2021/08/17 05:00:48;;;;;;;22.52;11.45;;;;;;;13.69;82.85;101781.72;5083082;28;20064;-70
2021/08/17 05:03:13;;;;;;;23.73;11.43;;;;;;;13.70;83.05;101776.41;5064562;28;20048;-70
2021/08/17 05:05:39;;;;;;;26.85;11.20;;;;;;;13.68;83.13;101775.59;5064864;28;20032;-70
2021/08/17 05:08:08;;;;;;;34.13;11.98;;;;;;;13.93;82.75;101786.00;5048335;28;20066;-70
2021/08/17 05:10:33;;;;;;;29.08;11.23;;;;;;;14.22;81.06;101783.97;5082123;28;20028;-70
2021/08/17 05:13:00;;;;;;;21.55;11.02;;;;;;;14.15;80.83;101793.03;5082815;28;20055;-70
2021/08/17 05:15:25;;;;;;;27.73;11.40;;;;;;;14.27;80.34;101781.16;5082178;28;20025;-70
2021/08/17 05:17:51;;;;;;;27.35;11.50;;;;;;;14.11;80.86;101789.69;5062510;28;20352;-70
2021/08/17 05:20:16;;;;;;;32.13;11.75;;;;;;;14.28;80.23;101799.56;5080555;28;20384;-70
2021/08/17 05:22:41;;;;;;;28.42;10.40;;;;;;;14.50;79.80;101796.03;5046009;28;20028;-70
2021/08/17 05:25:07;;;;;;;30.85;11.75;;;;;;;14.50;80.05;101788.13;5045908;28;20138;-70
2021/08/17 05:27:33;;;;;;;30.15;12.25;;;;;;;14.48;80.63;101787.31;5080091;28;20095;-70
2021/08/17 05:29:59;;;;;;;31.30;11.88;;;;;;;14.75;79.84;101783.56;5062409;28;20060;-71
2021/08/17 05:32:24;;;;;;;31.75;11.93;;;;;;;14.90;79.83;101782.03;5080280;28;20051;-70
2021/08/17 05:34:50;;;;;;;30.98;11.38;;;;;;;15.12;78.51;101768.72;5078825;28;20324;-71
2021/08/17 05:37:15;;;;;;;29.17;11.25;;;;;;;15.14;78.56;101761.59;5083987;28;20028;-70
2021/08/17 05:39:42;;;;;;;30.45;11.55;;;;;;;15.20;76.85;101772.81;5066939;28;20028;-70
2021/08/17 05:42:09;;;;;;;28.55;9.82;;;;;;;15.82;74.96;101776.13;5077730;28;20090;-70
2021/08/17 05:44:38;;;;;;;24.98;10.02;;;;;;;15.80;75.29;101776.19;5044660;28;20036;-70
2021/08/17 05:47:03;;;;;;;26.17;10.23;;;;;;;15.55;76.47;101774.69;5061891;28;20020;-70
2021/08/17 05:49:29;;;;;;;34.83;10.77;;;;;;;15.31;77.70;101766.09;5079098;28;20043;-70
2021/08/17 05:51:54;;;;;;;29.95;11.07;;;;;;;15.35;77.73;101777.38;5079406;28;20262;-70
2021/08/17 05:54:20;;;;;;;26.27;10.60;;;;;;;15.33;78.12;101771.31;5079040;28;20044;-70
2021/08/17 05:56:45;;;;;;;20.17;10.30;;;;;;;15.39;78.83;101770.16;5080000;28;20097;-70
2021/08/17 05:59:10;;;;;;;30.55;10.65;;;;;;;15.40;78.80;101770.09;5079419;28;20090;-70
2021/08/17 06:01:36;;;;;;;22.15;9.23;;;;;;;15.52;76.68;101774.81;5061405;28;20024;-70
2021/08/17 06:04:02;;;;;;;24.88;11.20;;;;;;;15.35;78.87;101772.97;5061249;28;20036;-70
2021/08/17 06:06:28;;;;;;;24.35;10.40;;;;;;;15.45;78.32;101778.66;5083793;28;20027;-71
2021/08/17 06:08:53;;;;;;;13.70;7.45;;;;;;;16.28;71.98;101769.44;5096210;28;20028;-70
2021/08/17 06:11:18;;;;;;;23.15;8.88;;;;;;;16.28;71.34;101777.38;5082971;28;20037;-70
2021/08/17 06:13:44;;;;;;;25.70;8.90;;;;;;;16.37;73.21;101778.72;5080534;28;20047;-70
2021/08/17 06:16:10;;;;;;;14.43;5.93;;;;;;;16.83;68.96;101770.25;5079961;28;20113;-70
2021/08/17 06:18:35;;;;;;;12.55;5.80;;;;;;;16.92;67.97;101764.47;5079461;28;20048;-70
2021/08/17 06:21:00;;;;;;;25.92;8.40;;;;;;;16.55;72.96;101773.41;5080000;28;20355;-71
2021/08/17 06:23:26;;;;;;;17.58;8.18;;;;;;;16.55;73.28;101782.19;5079218;28;20214;-70
2021/08/17 06:25:51;;;;;;;25.35;9.75;;;;;;;16.29;74.02;101783.50;5054932;28;20051;-70
2021/08/17 06:28:17;;;;;;;28.65;7.90;;;;;;;16.54;72.68;101777.00;5101104;28;20032;-70
2021/08/17 06:30:42;;;;;;;25.20;8.88;;;;;;;16.39;73.24;101781.25;5083552;28;20091;-70
2021/08/17 06:33:08;;;;;;;24.10;7.93;;;;;;;16.82;71.98;101787.84;5039646;28;20040;-71
2021/08/17 06:35:33;;;;;;;14.27;7.05;;;;;;;17.30;69.97;101795.09;5082913;28;20288;-71
2021/08/17 06:37:59;;;;;;;19.65;8.00;;;;;;;17.14;70.44;101795.94;5086186;28;20070;-71
2021/08/17 06:40:25;;;;;;;15.63;6.65;;;;;;;18.17;67.43;101798.25;5055292;28;20025;-71
2021/08/17 06:42:50;;;;;;;14.85;6.80;;;;;;;17.89;66.52;101803.41;5069376;28;20099;-71
2021/08/17 06:45:16;;;;;;;17.20;7.35;;;;;;;17.39;69.95;101805.19;5082687;28;20036;-71
2021/08/17 06:47:49;;;;;;;8.75;6.18;;;;;;;17.95;64.00;101798.59;5066734;28;20058;-71
2021/08/17 06:50:14;;;;;;;10.80;6.28;;;;;;;17.70;67.26;101793.81;5090022;28;20064;-71
2021/08/17 06:52:39;;;;;;;19.05;7.00;;;;;;;17.34;69.83;101786.09;5080743;28;20039;-71
2021/08/17 06:55:06;;;;;;;16.77;7.20;;;;;;;17.19;71.65;101785.97;5056155;28;20031;-71
2021/08/17 06:57:31;;;;;;;19.33;6.60;;;;;;;17.23;71.15;101798.09;5061931;28;20040;-71
2021/08/17 06:59:57;;;;;;;20.40;7.50;;;;;;;17.26;68.16;101805.00;5056107;28;20059;-71
2021/08/17 07:02:22;;;;;;;23.73;6.70;;;;;;;17.14;71.87;101795.09;5081859;28;20049;-71
2021/08/17 07:04:48;;;;;;;12.00;5.70;;;;;;;17.56;65.85;101796.34;5101033;28;20036;-71
2021/08/17 07:07:13;;;;;;;11.63;6.32;;;;;;;17.24;68.02;101783.06;5055921;28;20335;-71
2021/08/17 07:09:38;;;;;;;12.45;6.38;;;;;;;17.34;68.50;101778.13;5055354;28;20292;-71
2021/08/17 07:12:04;;;;;;;7.93;4.22;;;;;;;18.21;61.96;101772.41;5080538;28;20042;-71
2021/08/17 07:14:29;;;;;;;7.35;5.07;;;;;;;18.37;62.18;101767.03;5061373;28;20040;-71
2021/08/17 07:16:55;;;;;;;18.77;6.22;;;;;;;17.46;67.37;101765.09;5079665;28;20028;-71
2021/08/17 07:19:20;;;;;;;11.68;5.90;;;;;;;17.46;66.71;101762.44;5079168;28;20036;-71
2021/08/17 07:21:46;;;;;;;14.00;5.18;;;;;;;17.71;65.45;101757.56;5061321;28;20332;-71
2021/08/17 07:24:11;;;;;;;9.77;4.97;;;;;;;18.23;62.70;101760.75;5061348;28;20040;-73
2021/08/17 07:26:36;;;;;;;10.07;5.05;;;;;;;18.59;61.47;101764.84;5060756;28;20037;-71
2021/08/17 07:29:02;;;;;;;9.73;4.90;;;;;;;18.09;63.32;101755.41;5079375;28;20052;-71
2021/08/17 07:31:28;;;;;;;9.88;5.10;;;;;;;17.91;64.28;101764.41;5078664;28;20028;-71
2021/08/17 07:33:53;;;;;;;8.73;4.60;;;;;;;18.43;62.46;101761.41;5061235;28;20089;-71
2021/08/17 07:36:19;;;;;;;12.50;5.05;;;;;;;18.44;62.32;101771.03;5060512;28;20032;-71
2021/08/17 07:38:44;;;;;;;8.40;4.65;;;;;;;18.44;61.62;101765.72;5078996;28;20041;-71
2021/08/17 07:41:09;;;;;;;10.82;5.13;;;;;;;18.41;63.14;101769.44;5069249;28;20023;-71
2021/08/17 07:43:35;;;;;;;6.78;4.13;;;;;;;18.94;60.19;101771.66;5078420;28;20370;-71
2021/08/17 07:46:00;;;;;;;9.98;4.95;;;;;;;19.26;59.64;101782.91;5078896;28;20328;-71
2021/08/17 07:48:26;;;;;;;8.30;4.20;;;;;;;18.96;60.44;101769.75;5060667;28;20116;-71
2021/08/17 07:50:51;;;;;;;8.70;4.57;;;;;;;19.27;58.16;101766.03;5060981;28;20093;-71
2021/08/17 07:53:17;;;;;;;13.70;4.57;;;;;;;18.95;60.11;101768.03;5047728;28;20024;-71
2021/08/17 07:55:42;;;;;;;10.73;4.75;;;;;;;18.95;59.57;101771.53;5078676;28;20038;-71
2021/08/17 07:58:07;;;;;;;6.97;4.18;;;;;;;19.48;57.67;101773.59;5061583;28;20040;-71
2021/08/17 08:00:33;;;;;;;7.22;3.88;;;;;;;19.76;57.10;101778.03;5060411;28;20366;-71
2021/08/17 08:02:58;;;;;;;7.43;4.15;;;;;;;19.22;58.24;101773.44;5044328;28;20054;-71
2021/08/17 08:05:24;;;;;;;9.00;4.28;;;;;;;18.85;60.17;101781.03;5054070;28;20074;-71
2021/08/17 08:07:49;;;;;;;6.28;3.80;;;;;;;19.14;59.52;101778.38;5078915;28;20358;-71
2021/08/17 08:10:14;;;;;;;4.18;3.33;;;;;;;19.30;58.14;101778.25;5082922;28;20084;-71
2021/08/17 08:12:40;;;;;;;6.25;3.28;;;;;;;19.27;58.07;101779.31;5065324;28;20056;-71
2021/08/17 08:15:06;;;;;;;4.50;2.90;;;;;;;19.04;58.58;101779.88;5083180;28;20058;-71
2021/08/17 08:17:46;;;;;;;4.18;3.42;;;;;;;19.27;58.33;101773.16;5064066;28;20043;-71
2021/08/17 08:20:12;;;;;;;4.75;3.25;;;;;;;18.93;59.02;101767.28;5066937;28;20335;-72
2021/08/17 08:22:38;;;;;;;6.90;3.53;;;;;;;18.55;60.50;101776.56;5064653;28;20059;-71
2021/08/17 08:25:04;;;;;;;5.47;3.13;;;;;;;18.56;60.09;101775.63;5064444;28;20078;-70
2021/08/17 08:27:29;;;;;;;7.05;3.30;;;;;;;18.51;60.25;101775.03;5082099;28;20370;-70
2021/08/17 08:29:55;;;;;;;5.78;3.38;;;;;;;18.66;60.02;101777.72;5082043;28;20056;-70
2021/08/17 08:32:21;;;;;;;4.63;3.15;;;;;;;18.53;60.19;101791.72;5064190;28;20036;-70
2021/08/17 08:34:46;;;;;;;7.57;2.95;;;;;;;19.58;56.89;101797.78;5064432;28;20105;-71
2021/08/17 08:37:11;;;;;;;4.72;3.00;;;;;;;19.24;57.82;101806.06;5077926;28;20328;-70
2021/08/17 08:39:38;;;;;;;3.88;2.67;;;;;;;19.76;56.13;101799.28;5082042;28;20032;-71
2021/08/17 08:42:04;;;;;;;4.60;2.72;;;;;;;20.04;55.36;101808.13;5057974;28;20034;-72
2021/08/17 08:44:29;;;;;;;3.60;2.90;;;;;;;19.69;56.10;101806.75;5063906;28;20037;-72
2021/08/17 08:46:55;;;;;;;3.55;2.75;;;;;;;19.97;55.34;101806.81;5046963;28;20368;-71
2021/08/17 08:49:20;;;;;;;3.10;2.90;;;;;;;19.94;55.07;101800.75;5063963;28;20100;-71
2021/08/17 08:51:46;;;;;;;3.72;2.58;;;;;;;19.62;56.36;101813.41;5047728;28;20028;-71
2021/08/17 08:54:11;;;;;;;5.68;2.83;;;;;;;19.17;57.25;101818.88;5082105;28;20032;-71
2021/08/17 08:56:37;;;;;;;6.18;3.00;;;;;;;19.13;57.83;101814.69;5065041;28;20095;-71
2021/08/17 08:59:02;;;;;;;4.85;2.85;;;;;;;18.84;59.10;101819.09;5065397;28;20328;-71
2021/08/17 09:01:28;;;;;;;5.72;3.15;;;;;;;18.62;59.76;101814.19;5048038;28;20229;-72
2021/08/17 09:03:54;;;;;;;5.35;3.40;;;;;;;18.46;60.47;101800.13;5079271;28;20091;-71
2021/08/17 09:06:21;;;;;;;3.25;2.85;;;;;;;18.35;60.51;101809.56;5064428;28;20375;-71
2021/08/17 09:08:47;;;;;;;3.53;2.75;;;;;;;18.23;61.30;101799.69;5062823;28;20036;-71
2021/08/17 09:11:20;;;;;;;9.02;3.40;;;;;;;17.92;62.45;101795.25;5073640;28;20032;-71
2021/08/17 09:13:46;;;;;;;5.03;3.33;;;;;;;18.10;61.54;101791.59;5062367;28;20052;-71
2021/08/17 09:16:41;;;;;;;11.52;3.53;;;;;;;18.24;61.52;101788.13;5075739;28;20020;-71
2021/08/17 09:19:21;;;;;;;9.73;3.70;;;;;;;17.50;63.92;101784.31;5062176;28;20136;-71
2021/08/17 09:21:46;;;;;;;6.07;3.60;;;;;;;17.94;62.14;101786.28;5067176;28;20028;-71
2021/08/17 09:24:25;;;;;;;9.07;3.97;;;;;;;17.64;63.31;101786.19;5083386;28;20028;-71
2021/08/17 09:26:55;;;;;;;10.60;3.33;;;;;;;17.78;63.57;101780.97;5101808;28;20051;-71
2021/08/17 09:29:37;;;;;;;9.38;4.15;;;;;;;17.44;64.75;101789.91;5079648;28;20053;-70
2021/08/17 09:32:17;;;;;;;7.72;3.28;;;;;;;18.17;61.69;101789.41;5064529;28;20036;-71
2021/08/17 09:34:44;;;;;;;6.30;3.42;;;;;;;17.54;63.84;101792.94;5080435;28;20032;-71
2021/08/17 09:37:12;;;;;;;6.88;3.33;;;;;;;17.72;63.59;101794.56;5044194;28;20103;-71
2021/08/17 09:39:46;;;;;;;7.85;3.08;;;;;;;17.70;63.92;101787.63;5043900;28;20045;-72
2021/08/17 09:42:28;;;;;;;4.40;2.65;;;;;;;18.12;61.74;101780.88;5064087;28;20025;-72
2021/08/17 09:45:16;;;;;;;3.75;2.45;;;;;;;18.35;61.99;101798.09;5068639;28;20040;-72
2021/08/17 09:47:46;;;;;;;3.25;2.60;;;;;;;18.45;61.62;101801.09;5079928;28;20031;-72
2021/08/17 09:50:22;;;;;;;3.38;2.53;;;;;;;18.68;60.50;101800.59;5063801;28;20312;-71
2021/08/17 09:52:48;;;;;;;3.88;2.58;;;;;;;18.18;64.98;101804.38;5079678;28;20043;-70
2021/08/17 09:55:21;;;;;;;6.30;2.50;;;;;;;18.82;59.44;101791.81;5062698;28;20032;-71
2021/08/17 09:57:47;;;;;;;4.40;2.70;;;;;;;18.19;62.65;101793.69;5043127;28;20357;-70
2021/08/17 10:00:17;;;;;;;5.53;3.13;;;;;;;18.02;64.03;101804.41;5042484;28;20243;-70
2021/08/17 10:02:44;;;;;;;4.43;2.60;;;;;;;17.86;64.04;101785.00;5059854;28;20111;-71
2021/08/17 10:05:11;;;;;;;4.70;3.50;;;;;;;16.80;70.63;101780.94;5077104;28;20050;-71
2021/08/17 10:07:37;;;;;;;7.35;3.05;;;;;;;17.21;67.93;101778.78;5080644;28;20095;-71
2021/08/17 10:10:03;;;;;;;4.32;3.28;;;;;;;17.34;68.66;101771.03;5062832;28;20371;-71
2021/08/17 10:12:29;;;;;;;5.30;3.30;;;;;;;16.47;73.35;101776.44;5079189;28;20095;-71
2021/08/17 10:14:54;;;;;;;5.30;3.53;;;;;;;16.75;72.50;101773.22;5079519;28;20030;-69
2021/08/17 10:17:20;;;;;;;3.08;2.78;;;;;;;17.03;71.99;101777.13;5078635;28;20032;-69
2021/08/17 10:19:45;;;;;;;7.82;3.40;;;;;;;16.26;75.05;101773.09;5081540;28;20147;-69
2021/08/17 10:22:10;;;;;;;3.90;3.50;;;;;;;15.87;76.09;101769.69;5081668;28;20031;-70
2021/08/17 10:24:39;;;;;;;5.25;3.67;;;;;;;15.86;75.68;101770.63;5080107;28;20062;-69
2021/08/17 10:27:23;;;;;;;3.92;3.55;;;;;;;15.54;78.46;101770.31;5054528;28;20342;-71
2021/08/17 10:29:55;;;;;;;6.40;3.70;;;;;;;15.74;77.94;101769.41;5070553;28;20049;-70
2021/08/17 10:32:37;;;;;;;6.95;3.85;;;;;;;15.41;78.90;101770.94;5062732;28;20140;-70
2021/08/17 10:35:03;;;;;;;8.40;4.03;;;;;;;15.81;77.29;101782.31;5063569;28;20036;-70
2021/08/17 10:37:28;;;;;;;5.13;3.65;;;;;;;16.10;73.37;101765.09;5062832;28;20044;-70
2021/08/17 10:39:54;;;;;;;7.53;3.85;;;;;;;15.91;77.68;101765.94;5046839;28;20113;-70
2021/08/17 10:42:22;;;;;;;9.95;4.10;;;;;;;15.34;79.68;101765.97;5065277;28;20087;-70
2021/08/17 10:44:47;;;;;;;7.97;4.00;;;;;;;15.92;76.69;101778.25;5081395;28;20024;-70
2021/08/17 10:47:47;;;;;;;8.88;3.72;;;;;;;15.73;77.86;101774.72;5046086;28;20371;-70
2021/08/17 10:50:15;;;;;;;4.72;3.35;;;;;;;16.41;74.94;101766.16;5038365;28;20228;-70
2021/08/17 10:52:40;;;;;;;6.45;3.55;;;;;;;16.05;77.98;101761.81;5066638;28;20315;-70
2021/08/17 10:55:23;;;;;;;6.70;3.50;;;;;;;16.06;77.87;101760.84;5082886;28;20031;-70
2021/08/17 10:57:59;;;;;;;5.55;4.03;;;;;;;16.06;78.01;101767.03;5066605;28;20316;-70
2021/08/17 11:00:53;;;;;;;4.50;3.65;;;;;;;16.45;76.08;101757.16;5100288;28;20331;-70
2021/08/17 11:03:49;;;;;;;5.93;3.10;;;;;;;16.55;73.75;101763.69;5066750;28;20392;-70
2021/08/17 11:06:40;;;;;;;6.07;3.20;;;;;;;16.70;74.20;101752.34;5067319;28;20335;-70
2021/08/17 11:09:37;;;;;;;4.93;3.35;;;;;;;16.83;73.36;101749.09;5082910;28;20356;-70
2021/08/17 11:12:08;;;;;;;5.35;4.40;;;;;;;16.24;76.06;101749.38;5075523;28;20051;-70
2021/08/17 11:14:34;;;;;;;8.82;4.82;;;;;;;16.23;76.91;101757.41;5082278;28;20055;-70
2021/08/17 11:17:01;;;;;;;7.95;5.28;;;;;;;16.18;78.32;101746.19;5101462;28;20044;-70
2021/08/17 11:19:37;;;;;;;8.38;5.18;;;;;;;16.21;78.03;101749.53;5082333;28;20204;-70
2021/08/17 11:22:09;;;;;;;4.75;3.55;;;;;;;17.10;69.82;101740.59;5066307;28;20323;-70
2021/08/17 11:24:39;;;;;;;5.97;4.65;;;;;;;16.38;76.63;101743.41;5082096;28;20048;-70